Time;durP1;ratioP1;P1;durP2;ratioP2;P2;SDS_P1;SDS_P2;PMS_P1;PMS_P2;Temp;Humidity;BMP_temperature;BMP_pressure;BME280_temperature;BME280_humidity;BME280_pressure;Samples;Min_cycle;Max_cycle;Signal;HPM_P1;HPM_P2
2022/10/19 07:10:58;;;;;;;6.82;3.92;;;;;;;;;;12963497;22;20004;-82
2022/10/19 07:16:05;;;;;;;7.93;4.68;;;;;;;;;;12917845;23;20082;-81
2022/10/19 07:21:24;;;;;;;7.45;4.65;;;;;;;;;;12892727;22;20008;-81
2022/10/19 07:26:39;;;;;;;12.20;8.70;;;;;;;;;;12951322;23;20015;-81
2022/10/19 07:31:47;;;;;;;17.08;13.10;;;;;;;;;;12893996;22;20013;-84
2022/10/19 07:36:53;;;;;;;20.42;16.70;;;;;;;;;;12924049;23;20019;-82
2022/10/19 07:41:56;;;;;;;23.77;17.85;;;;;;;;;;12945808;22;20286;-81
2022/10/19 07:47:03;;;;;;;22.30;16.55;;;;;;;;;;12925123;23;20004;-81
2022/10/19 07:52:06;;;;;;;20.90;14.45;;;;;;;;;;12931340;22;20000;-82
2022/10/19 07:57:11;;;;;;;26.02;19.27;;;;;;;;;;12936195;23;20004;-82
2022/10/19 08:02:19;;;;;;;30.73;18.25;;;;;;;;;;12934259;22;20004;-81
2022/10/19 08:07:26;;;;;;;35.25;19.90;;;;;;;;;;12962094;22;20020;-81
2022/10/19 08:12:35;;;;;;;38.88;22.67;;;;;;;;;;12962391;22;20007;-81
2022/10/19 08:17:46;;;;;;;24.88;15.50;;;;;;;;;;12958444;23;20083;-81
2022/10/19 08:28:32;;;;;;;23.65;14.10;;;;;;;;;;12876548;23;20020;-81
2022/10/19 08:33:35;;;;;;;22.83;14.77;;;;;;;;;;12923513;22;20050;-81
2022/10/19 08:38:47;;;;;;;16.90;11.27;;;;;;;;;;12953861;23;20016;-82
2022/10/19 08:44:09;;;;;;;14.23;8.27;;;;;;;;;;12929575;22;20083;-80
2022/10/19 08:49:19;;;;;;;10.68;7.72;;;;;;;;;;12917695;23;20007;-82
2022/10/19 08:54:24;;;;;;;13.10;8.67;;;;;;;;;;12922720;23;20089;-82
2022/10/19 08:59:47;;;;;;;9.82;6.38;;;;;;;;;;12921662;23;20012;-82
2022/10/19 09:04:50;;;;;;;10.73;7.75;;;;;;;;;;12923939;23;20076;-81
2022/10/19 09:10:09;;;;;;;12.27;7.50;;;;;;;;;;12923808;23;20101;-81
2022/10/19 09:15:24;;;;;;;12.20;8.85;;;;;;;;;;12935782;23;20020;-82
2022/10/19 10:05:57;;;;;;;7.43;4.43;;;;;;;;;;12827353;23;20084;-81
2022/10/19 10:17:10;;;;;;;7.28;4.00;;;;;;;;;;12852421;23;20008;-82
2022/10/19 10:22:26;;;;;;;5.32;2.90;;;;;;;;;;12913647;23;20004;-84
2022/10/19 12:04:17;;;;;;;5.60;2.53;;;;;;;;;;12877998;22;20017;-85
2022/10/19 12:32:04;;;;;;;3.60;2.00;;;;;;;;;;12868286;23;19997;-82
2022/10/19 12:43:08;;;;;;;6.13;2.10;;;;;;;;;;12865314;23;20023;-85
2022/10/19 12:48:21;;;;;;;5.25;2.20;;;;;;;;;;12866988;23;20035;-84
2022/10/19 12:54:02;;;;;;;5.65;2.25;;;;;;;;;;12871390;23;20001;-87
2022/10/19 13:05:05;;;;;;;5.70;2.13;;;;;;;;;;12878375;22;20071;-86
2022/10/19 13:16:13;;;;;;;3.05;1.70;;;;;;;;;;12866532;23;20021;-86
2022/10/19 13:21:34;;;;;;;4.65;1.98;;;;;;;;;;12871005;23;20009;-88
2022/10/19 13:26:37;;;;;;;3.78;1.88;;;;;;;;;;12862800;23;20012;-87
2022/10/19 13:31:45;;;;;;;6.03;2.00;;;;;;;;;;12873294;23;20012;-87
2022/10/19 13:37:01;;;;;;;5.03;1.95;;;;;;;;;;12894119;23;20377;-85
2022/10/19 13:53:47;;;;;;;2.95;1.70;;;;;;;;;;12885960;23;20012;-83
2022/10/19 13:59:10;;;;;;;4.00;2.13;;;;;;;;;;12888772;23;20036;-84
2022/10/19 14:04:41;;;;;;;3.78;1.70;;;;;;;;;;12894943;23;20013;-82
2022/10/19 14:10:13;;;;;;;2.67;1.30;;;;;;;;;;12887437;23;20003;-83
2022/10/19 14:15:28;;;;;;;3.65;1.63;;;;;;;;;;12888779;23;20019;-86
2022/10/19 14:20:31;;;;;;;7.30;1.48;;;;;;;;;;12909055;23;20087;-80
2022/10/19 14:26:04;;;;;;;4.10;1.45;;;;;;;;;;12901669;23;20028;-81
2022/10/19 14:31:06;;;;;;;4.45;1.80;;;;;;;;;;12883747;23;20004;-85
2022/10/19 14:36:14;;;;;;;5.85;1.60;;;;;;;;;;12872384;23;20035;-84
2022/10/19 14:41:21;;;;;;;7.00;1.67;;;;;;;;;;12872714;23;20047;-84
2022/10/19 14:46:25;;;;;;;2.83;1.27;;;;;;;;;;12884276;23;20039;-83
2022/10/19 14:51:30;;;;;;;7.07;1.73;;;;;;;;;;12872381;23;20004;-84
2022/10/19 14:56:54;;;;;;;4.63;1.60;;;;;;;;;;12874224;23;20005;-84
2022/10/19 15:01:56;;;;;;;4.78;1.48;;;;;;;;;;12872178;23;20025;-78
2022/10/19 15:07:04;;;;;;;3.45;1.42;;;;;;;;;;12893753;23;20019;-80
2022/10/19 15:12:18;;;;;;;3.20;1.30;;;;;;;;;;12894594;23;20021;-79
2022/10/19 15:17:59;;;;;;;6.60;1.48;;;;;;;;;;12809366;23;20084;-80
2022/10/19 15:23:41;;;;;;;3.88;1.50;;;;;;;;;;12824831;23;20009;-80
2022/10/19 15:29:04;;;;;;;3.22;1.50;;;;;;;;;;12828216;23;20013;-80
2022/10/19 15:34:05;;;;;;;8.18;1.60;;;;;;;;;;12799205;23;20012;-83
2022/10/19 15:39:07;;;;;;;3.00;1.40;;;;;;;;;;12887486;23;20076;-84
2022/10/19 15:44:27;;;;;;;4.40;1.70;;;;;;;;;;12883227;23;20191;-84
2022/10/19 15:55:17;;;;;;;2.17;0.98;;;;;;;;;;12877756;23;20000;-87
2022/10/19 16:06:23;;;;;;;2.42;1.30;;;;;;;;;;12864752;22;20023;-88
2022/10/19 16:11:34;;;;;;;3.63;1.10;;;;;;;;;;12868521;23;20019;-87
2022/10/19 16:16:54;;;;;;;3.50;1.30;;;;;;;;;;12880781;23;20009;-85
2022/10/19 18:21:03;;;;;;;2.92;2.00;;;;;;;;;;12869994;23;20001;-86
2022/10/19 19:05:56;;;;;;;5.50;2.67;;;;;;;;;;12879384;22;20023;-85
2022/10/19 19:11:14;;;;;;;3.50;2.00;;;;;;;;;;12877524;23;20032;-85
2022/10/19 19:16:22;;;;;;;2.75;1.65;;;;;;;;;;12876351;23;20017;-85
2022/10/19 19:21:30;;;;;;;3.03;1.95;;;;;;;;;;12878875;23;20425;-85
